Cheney, KS

2:15 AM CST on December 28, 2014 (GMT -0600)
Wichita Mid-Continent | Change Station
CLOSE
Current Station
Airport
Location: Wichita,
Elevation: 1332 ft
Nearby Weather Stations

Elev 1332 ft 37.65 °N, 97.43 °W | Updated 22 minutes ago

Clear
Clear
17 °F
Feels Like 12 °F
N
4
Wind Variable Wind from SW

Today
High -- | Low -- °F
--% Chance of Precip.
Yesterday
High -- | Low -- °F
Precip. -- in
7:45 AM 5:20 PM
Waxing Crescent, 45% visible
Pressure 30.31 in
Visibility 10.0 miles
Clouds Clear
Windchill 12 °F
Dew Point 12 °F
Humidity 81%
Rainfall 0.00 in
Snow Depth Not available.
UV 0 out of 12
Pollen .10 out of 12
Air Quality Not available.
Flu Activity Not available.
METAR KICT 280753Z 22003KT 10SM CLR M08/M11 A3026 RMK AO2 SLP263 T10831111

More Conditions Fewer Conditions

Pressure 30.31 in
Visibility 10.0 miles
Clouds Clear
Windchill 12 °F
Dew Point 12 °F
Humidity 81%
Rainfall 0.00 in
Snow Depth Not available.
UV 0 out of 12
Pollen .10 out of 12
Air Quality Not available.
Flu Activity Not available.
METAR KICT 280753Z 22003KT 10SM CLR M08/M11 A3026 RMK AO2 SLP263 T10831111

More Conditions Fewer Conditions

10-Day Weather Forecast

Almanac

Astronomy

Dec. 28, 2014 Rise Set
Actual Time
Civil Twilight
Nautical Twilight
Astronomical Twilight
Moon
Length of Visible Light
Length of Day
Tomorrow will be .
, % of the Moon is Illuminated

Today's Extremes

State Highs State Lows

Community

WunderPhotos

Upload Photos

1,781,210 photos uploaded!

WunderBlogs® & News

Nearby

Air Quality

  Air Quality AQ Index Pollutant
Not available.

Snow Depth

Station Depth Elevation

Earthquake Activity

City Distance Mag. Time & Date
Minimum magnitude displayed is 2.5.

Coastal Water Temperatures

Place Temperature

Nearby Weather Stations